This is the latest recevied weather packets stored in our database for station/object W7MKM-13. If no packets are shown the sender has not sent any weather packets the latest 10 day(s).
| Time | Temp. | Humidity | Pressure | Rain* | Wind** | Luminosity | Snow |
|---|---|---|---|---|---|---|---|
| 1777637716 | 3.33° C | 65% | 1018.8 hPa | 0 mm | - | 0 W/m² | - |
| 1777633516 | 3.89° C | 63% | 1018.6 hPa | 0 mm | - | 0 W/m² | - |
| 1777632016 | 4.44° C | 60% | 1018.7 hPa | 0 mm | - | 0 W/m² | - |
| 1777631416 | 5° C | 59% | 1018.6 hPa | 0 mm | - | 0 W/m² | - |
| 1777629616 | 5° C | 59% | 1018.8 hPa | 0 mm | - | 0 W/m² | - |
| 1777628416 | 5.56° C | 56% | 1018.7 hPa | 0 mm | - | 0 W/m² | - |
| 1777627816 | 6.11° C | 54% | 1019 hPa | 0 mm | - | 0 W/m² | - |
| 1777627516 | 6.67° C | 53% | 1019 hPa | 0 mm | - | 0 W/m² | - |
| 1777624816 | 7.22° C | 50% | 1019.3 hPa | 0 mm | - | 0 W/m² | - |
| 1777624516 | 7.22° C | 50% | 1019.4 hPa | 0 mm | - | 0 W/m² | - |
| 1777624216 | 7.22° C | 49% | 1019.3 hPa | 0 mm | - | 0 W/m² | - |
| 1777621816 | 7.22° C | 48% | 1019.4 hPa | 0 mm | - | 0 W/m² | - |
| 1777620916 | 7.78° C | 46% | 1019.2 hPa | 0 mm | - | 0 W/m² | - |
| 1777620016 | 8.89° C | 42% | 1019.4 hPa | 0 mm | - | 0 W/m² | - |
| 1777619716 | 8.89° C | 42% | 1019.3 hPa | 0 mm | - | 0 W/m² | - |
| 1777616416 | 9.44° C | 42% | 1019.2 hPa | 0 mm | - | 0 W/m² | - |
| 1777614916 | 10° C | 39% | 1019 hPa | 0 mm | - | 0 W/m² | - |
| 1777612516 | 10.56° C | 41% | 1018.9 hPa | 0 mm | - | 0 W/m² | - |
| 1777612216 | 10.56° C | 41% | 1018.9 hPa | 0 mm | - | 0 W/m² | - |
| 1777611916 | 11.11° C | 42% | 1019 hPa | 0 mm | - | 0 W/m² | - |
| 1777611016 | 10.56° C | 43% | 1019 hPa | 0 mm | - | 0 W/m² | - |
| 1777608916 | 11.67° C | 42% | 1018.5 hPa | 0 mm | - | 0 W/m² | - |
| 1777608616 | 11.67° C | 41% | 1018.5 hPa | 0 mm | - | 0 W/m² | - |
| 1777607416 | 12.78° C | 38% | 1018.3 hPa | 0 mm | - | 0 W/m² | - |
| 1777606816 | 12.78° C | 37% | 1018.2 hPa | 0 mm | - | 0 W/m² | - |
* Rain latest hour (hover to see other rain measurements)
** Current wind speed in m/s (hover to see current wind gust speed)